sensor_id;sensor_type;location;lat;lon;timestamp;temperature;humidity
42095;DHT22;27753;55.724;37.612;2022-11-20T00:00:54;-1.40;99.90
42095;DHT22;27753;55.724;37.612;2022-11-20T00:03:20;-1.40;99.90
42095;DHT22;27753;55.724;37.612;2022-11-20T00:05:46;-1.40;99.90
42095;DHT22;27753;55.724;37.612;2022-11-20T00:08:12;-1.30;99.90
42095;DHT22;27753;55.724;37.612;2022-11-20T00:10:38;-1.40;99.90
42095;DHT22;27753;55.724;37.612;2022-11-20T00:13:06;-1.30;99.90
42095;DHT22;27753;55.724;37.612;2022-11-20T00:15:33;-1.40;99.90
42095;DHT22;27753;55.724;37.612;2022-11-20T00:17:58;-1.30;99.90
42095;DHT22;27753;55.724;37.612;2022-11-20T00:20:24;-1.40;99.90
42095;DHT22;27753;55.724;37.612;2022-11-20T00:22:50;-1.30;99.90
42095;DHT22;27753;55.724;37.612;2022-11-20T00:25:16;-1.40;99.90
42095;DHT22;27753;55.724;37.612;2022-11-20T00:27:42;-1.40;99.90
42095;DHT22;27753;55.724;37.612;2022-11-20T00:30:08;-1.40;99.90
42095;DHT22;27753;55.724;37.612;2022-11-20T00:32:34;-1.50;99.90
42095;DHT22;27753;55.724;37.612;2022-11-20T00:35:00;-1.50;99.90
42095;DHT22;27753;55.724;37.612;2022-11-20T00:37:26;-1.50;99.90
42095;DHT22;27753;55.724;37.612;2022-11-20T00:39:52;-1.50;99.90
42095;DHT22;27753;55.724;37.612;2022-11-20T00:42:18;-1.50;99.90
42095;DHT22;27753;55.724;37.612;2022-11-20T00:44:44;-1.50;99.90
42095;DHT22;27753;55.724;37.612;2022-11-20T00:47:10;-1.50;99.90
42095;DHT22;27753;55.724;37.612;2022-11-20T00:49:35;-1.50;99.90
42095;DHT22;27753;55.724;37.612;2022-11-20T00:52:01;-1.50;99.90
42095;DHT22;27753;55.724;37.612;2022-11-20T00:54:27;-1.50;99.90
42095;DHT22;27753;55.724;37.612;2022-11-20T00:56:53;-1.50;99.90
42095;DHT22;27753;55.724;37.612;2022-11-20T00:59:19;-1.50;99.90
42095;DHT22;27753;55.724;37.612;2022-11-20T01:01:45;-1.50;99.90
42095;DHT22;27753;55.724;37.612;2022-11-20T01:04:11;-1.60;99.90
42095;DHT22;27753;55.724;37.612;2022-11-20T01:06:38;-1.50;99.90
42095;DHT22;27753;55.724;37.612;2022-11-20T01:09:14;-1.60;99.90
42095;DHT22;27753;55.724;37.612;2022-11-20T01:11:42;-1.50;99.90
42095;DHT22;27753;55.724;37.612;2022-11-20T01:14:12;-1.50;99.90
42095;DHT22;27753;55.724;37.612;2022-11-20T01:16:40;-1.50;99.90
42095;DHT22;27753;55.724;37.612;2022-11-20T01:19:10;-1.50;99.90
42095;DHT22;27753;55.724;37.612;2022-11-20T01:21:39;-1.50;99.90
42095;DHT22;27753;55.724;37.612;2022-11-20T01:24:06;-1.50;99.90
42095;DHT22;27753;55.724;37.612;2022-11-20T01:26:35;-1.50;99.90
42095;DHT22;27753;55.724;37.612;2022-11-20T01:29:02;-1.50;99.90
42095;DHT22;27753;55.724;37.612;2022-11-20T01:31:36;-1.50;99.90
42095;DHT22;27753;55.724;37.612;2022-11-20T01:34:04;-1.50;99.90
42095;DHT22;27753;55.724;37.612;2022-11-20T01:36:32;-1.60;99.90
42095;DHT22;27753;55.724;37.612;2022-11-20T01:39:04;-1.60;99.90
42095;DHT22;27753;55.724;37.612;2022-11-20T01:41:32;-1.60;99.90
42095;DHT22;27753;55.724;37.612;2022-11-20T01:44:20;-1.60;99.90
42095;DHT22;27753;55.724;37.612;2022-11-20T01:46:54;-1.60;99.90
42095;DHT22;27753;55.724;37.612;2022-11-20T01:50:10;-1.60;99.90
42095;DHT22;27753;55.724;37.612;2022-11-20T01:52:38;-1.60;99.90
42095;DHT22;27753;55.724;37.612;2022-11-20T01:55:09;-1.70;99.90
42095;DHT22;27753;55.724;37.612;2022-11-20T01:57:38;-1.70;99.90
42095;DHT22;27753;55.724;37.612;2022-11-20T02:00:10;-1.70;99.90
42095;DHT22;27753;55.724;37.612;2022-11-20T02:02:37;-1.70;99.90
42095;DHT22;27753;55.724;37.612;2022-11-20T02:05:14;-1.70;99.90
42095;DHT22;27753;55.724;37.612;2022-11-20T02:07:43;-1.70;99.90
42095;DHT22;27753;55.724;37.612;2022-11-20T02:10:10;-1.70;99.90
42095;DHT22;27753;55.724;37.612;2022-11-20T02:12:36;-1.80;99.90
42095;DHT22;27753;55.724;37.612;2022-11-20T02:15:21;-1.80;99.90
42095;DHT22;27753;55.724;37.612;2022-11-20T02:17:46;-1.80;99.90
42095;DHT22;27753;55.724;37.612;2022-11-20T02:20:13;-1.80;99.90
42095;DHT22;27753;55.724;37.612;2022-11-20T02:22:56;-1.80;99.90
42095;DHT22;27753;55.724;37.612;2022-11-20T02:25:24;-1.80;99.90
42095;DHT22;27753;55.724;37.612;2022-11-20T02:27:53;-1.80;99.90
42095;DHT22;27753;55.724;37.612;2022-11-20T02:30:18;-1.80;99.90
42095;DHT22;27753;55.724;37.612;2022-11-20T02:32:44;-1.80;99.90
42095;DHT22;27753;55.724;37.612;2022-11-20T02:37:59;-1.70;99.90
42095;DHT22;27753;55.724;37.612;2022-11-20T02:40:26;-1.70;99.90
42095;DHT22;27753;55.724;37.612;2022-11-20T02:42:56;-1.70;99.90
42095;DHT22;27753;55.724;37.612;2022-11-20T02:45:23;-1.70;99.90
42095;DHT22;27753;55.724;37.612;2022-11-20T02:47:49;-1.70;99.90
42095;DHT22;27753;55.724;37.612;2022-11-20T02:50:15;-1.70;99.90
42095;DHT22;27753;55.724;37.612;2022-11-20T02:52:41;-1.70;99.90
42095;DHT22;27753;55.724;37.612;2022-11-20T02:55:07;-1.70;99.90
42095;DHT22;27753;55.724;37.612;2022-11-20T02:57:33;-1.70;99.90
42095;DHT22;27753;55.724;37.612;2022-11-20T02:59:59;-1.70;99.90
42095;DHT22;27753;55.724;37.612;2022-11-20T03:02:25;-1.70;99.90
42095;DHT22;27753;55.724;37.612;2022-11-20T03:04:51;-1.70;99.90
42095;DHT22;27753;55.724;37.612;2022-11-20T03:07:17;-1.70;99.90
42095;DHT22;27753;55.724;37.612;2022-11-20T03:09:42;-1.70;99.90
42095;DHT22;27753;55.724;37.612;2022-11-20T03:12:08;-1.70;99.90
42095;DHT22;27753;55.724;37.612;2022-11-20T03:14:34;-1.70;99.90
42095;DHT22;27753;55.724;37.612;2022-11-20T03:17:00;-1.70;99.90
42095;DHT22;27753;55.724;37.612;2022-11-20T03:19:26;-1.70;99.90
42095;DHT22;27753;55.724;37.612;2022-11-20T03:21:52;-1.70;99.90
42095;DHT22;27753;55.724;37.612;2022-11-20T03:24:17;-1.70;99.90
42095;DHT22;27753;55.724;37.612;2022-11-20T03:26:43;-1.70;99.90
42095;DHT22;27753;55.724;37.612;2022-11-20T03:29:09;-1.80;99.90
42095;DHT22;27753;55.724;37.612;2022-11-20T03:31:39;-1.80;99.90
42095;DHT22;27753;55.724;37.612;2022-11-20T03:34:10;-1.70;99.90
42095;DHT22;27753;55.724;37.612;2022-11-20T03:36:40;-1.80;99.90
42095;DHT22;27753;55.724;37.612;2022-11-20T03:39:07;-1.70;99.90
42095;DHT22;27753;55.724;37.612;2022-11-20T03:41:37;-1.70;99.90
42095;DHT22;27753;55.724;37.612;2022-11-20T03:44:05;-1.70;99.90
42095;DHT22;27753;55.724;37.612;2022-11-20T03:46:31;-1.70;99.90
42095;DHT22;27753;55.724;37.612;2022-11-20T03:48:57;-1.70;99.90
42095;DHT22;27753;55.724;37.612;2022-11-20T03:51:25;-1.70;99.90
42095;DHT22;27753;55.724;37.612;2022-11-20T03:53:53;-1.70;99.90
42095;DHT22;27753;55.724;37.612;2022-11-20T03:56:23;-1.70;99.90
42095;DHT22;27753;55.724;37.612;2022-11-20T03:58:49;-1.80;99.90
42095;DHT22;27753;55.724;37.612;2022-11-20T04:01:18;-1.70;99.90
42095;DHT22;27753;55.724;37.612;2022-11-20T04:03:45;-1.70;99.90
42095;DHT22;27753;55.724;37.612;2022-11-20T04:06:22;-1.70;99.90
42095;DHT22;27753;55.724;37.612;2022-11-20T04:08:49;-1.70;99.90
42095;DHT22;27753;55.724;37.612;2022-11-20T04:11:20;-1.70;99.90
42095;DHT22;27753;55.724;37.612;2022-11-20T04:13:49;-1.70;99.90
42095;DHT22;27753;55.724;37.612;2022-11-20T04:16:15;-1.70;99.90
42095;DHT22;27753;55.724;37.612;2022-11-20T04:18:41;-1.70;99.90
42095;DHT22;27753;55.724;37.612;2022-11-20T04:21:07;-1.70;99.90
42095;DHT22;27753;55.724;37.612;2022-11-20T04:23:33;-1.70;99.90
42095;DHT22;27753;55.724;37.612;2022-11-20T04:26:11;-1.70;99.90
42095;DHT22;27753;55.724;37.612;2022-11-20T04:28:38;-1.70;99.90
42095;DHT22;27753;55.724;37.612;2022-11-20T04:31:13;-1.70;99.90
42095;DHT22;27753;55.724;37.612;2022-11-20T04:33:40;-1.70;99.90
42095;DHT22;27753;55.724;37.612;2022-11-20T04:36:11;-1.70;99.90
42095;DHT22;27753;55.724;37.612;2022-11-20T04:38:38;-1.60;99.90
42095;DHT22;27753;55.724;37.612;2022-11-20T04:41:05;-1.60;99.90
42095;DHT22;27753;55.724;37.612;2022-11-20T04:43:33;-1.60;99.90
42095;DHT22;27753;55.724;37.612;2022-11-20T04:45:59;-1.60;99.90
42095;DHT22;27753;55.724;37.612;2022-11-20T04:48:27;-1.60;99.90
42095;DHT22;27753;55.724;37.612;2022-11-20T04:50:53;-1.60;99.90
42095;DHT22;27753;55.724;37.612;2022-11-20T04:53:20;-1.60;99.90
42095;DHT22;27753;55.724;37.612;2022-11-20T04:55:46;-1.60;99.90
42095;DHT22;27753;55.724;37.612;2022-11-20T04:58:13;-1.60;99.90
42095;DHT22;27753;55.724;37.612;2022-11-20T05:00:39;-1.60;99.90
42095;DHT22;27753;55.724;37.612;2022-11-20T05:03:05;-1.60;99.90
42095;DHT22;27753;55.724;37.612;2022-11-20T05:05:31;-1.60;99.90
42095;DHT22;27753;55.724;37.612;2022-11-20T05:07:58;-1.60;99.90
42095;DHT22;27753;55.724;37.612;2022-11-20T05:10:26;-1.70;99.90
42095;DHT22;27753;55.724;37.612;2022-11-20T05:12:52;-1.70;99.90
42095;DHT22;27753;55.724;37.612;2022-11-20T05:15:18;-1.70;99.90
42095;DHT22;27753;55.724;37.612;2022-11-20T05:17:48;-1.70;99.90
42095;DHT22;27753;55.724;37.612;2022-11-20T05:20:15;-1.70;99.90
42095;DHT22;27753;55.724;37.612;2022-11-20T05:22:40;-1.70;99.90
42095;DHT22;27753;55.724;37.612;2022-11-20T05:25:08;-1.70;99.90
42095;DHT22;27753;55.724;37.612;2022-11-20T05:27:33;-1.60;99.90
42095;DHT22;27753;55.724;37.612;2022-11-20T05:29:59;-1.60;99.90
42095;DHT22;27753;55.724;37.612;2022-11-20T05:32:25;-1.60;99.90
42095;DHT22;27753;55.724;37.612;2022-11-20T05:34:52;-1.60;99.90
42095;DHT22;27753;55.724;37.612;2022-11-20T05:37:18;-1.60;99.90
42095;DHT22;27753;55.724;37.612;2022-11-20T05:39:51;-1.70;99.90
42095;DHT22;27753;55.724;37.612;2022-11-20T05:42:17;-1.60;99.90
42095;DHT22;27753;55.724;37.612;2022-11-20T05:44:59;-1.70;99.90
42095;DHT22;27753;55.724;37.612;2022-11-20T05:47:26;-1.70;99.90
42095;DHT22;27753;55.724;37.612;2022-11-20T05:49:52;-1.70;99.90
42095;DHT22;27753;55.724;37.612;2022-11-20T05:52:18;-1.70;99.90
42095;DHT22;27753;55.724;37.612;2022-11-20T05:54:44;-1.60;99.90
42095;DHT22;27753;55.724;37.612;2022-11-20T05:57:09;-1.60;99.90
42095;DHT22;27753;55.724;37.612;2022-11-20T05:59:37;-1.60;99.90
42095;DHT22;27753;55.724;37.612;2022-11-20T06:02:02;-1.60;99.90
42095;DHT22;27753;55.724;37.612;2022-11-20T06:04:28;-1.60;99.90
42095;DHT22;27753;55.724;37.612;2022-11-20T06:06:54;-1.50;99.90
42095;DHT22;27753;55.724;37.612;2022-11-20T06:09:20;-1.50;99.90
42095;DHT22;27753;55.724;37.612;2022-11-20T06:11:46;-1.40;99.90
42095;DHT22;27753;55.724;37.612;2022-11-20T06:14:11;-1.40;99.90
42095;DHT22;27753;55.724;37.612;2022-11-20T06:16:37;-1.40;99.90
42095;DHT22;27753;55.724;37.612;2022-11-20T06:19:03;-1.40;99.90
42095;DHT22;27753;55.724;37.612;2022-11-20T06:21:29;-1.50;99.80
42095;DHT22;27753;55.724;37.612;2022-11-20T06:23:55;-1.50;99.80
42095;DHT22;27753;55.724;37.612;2022-11-20T06:26:23;-1.50;99.90
42095;DHT22;27753;55.724;37.612;2022-11-20T06:28:49;-1.50;99.90
42095;DHT22;27753;55.724;37.612;2022-11-20T06:31:17;-1.50;99.90
42095;DHT22;27753;55.724;37.612;2022-11-20T06:33:44;-1.50;99.90
42095;DHT22;27753;55.724;37.612;2022-11-20T06:36:12;-1.50;99.90
42095;DHT22;27753;55.724;37.612;2022-11-20T06:38:40;-1.40;99.90
42095;DHT22;27753;55.724;37.612;2022-11-20T06:41:07;-1.30;99.90
42095;DHT22;27753;55.724;37.612;2022-11-20T06:43:33;-1.30;99.90
42095;DHT22;27753;55.724;37.612;2022-11-20T06:45:59;-1.30;99.90
42095;DHT22;27753;55.724;37.612;2022-11-20T06:48:26;-1.30;99.80
42095;DHT22;27753;55.724;37.612;2022-11-20T06:50:53;-1.30;99.80
42095;DHT22;27753;55.724;37.612;2022-11-20T06:53:19;-1.30;99.50
42095;DHT22;27753;55.724;37.612;2022-11-20T06:55:46;-1.30;99.60
42095;DHT22;27753;55.724;37.612;2022-11-20T06:58:15;-1.30;99.60
42095;DHT22;27753;55.724;37.612;2022-11-20T07:00:41;-1.30;99.70
42095;DHT22;27753;55.724;37.612;2022-11-20T07:03:08;-1.20;99.50
42095;DHT22;27753;55.724;37.612;2022-11-20T07:05:38;-1.30;99.20
42095;DHT22;27753;55.724;37.612;2022-11-20T07:08:04;-1.20;99.40
42095;DHT22;27753;55.724;37.612;2022-11-20T07:10:30;-1.20;99.50
42095;DHT22;27753;55.724;37.612;2022-11-20T07:12:57;-1.20;99.40
42095;DHT22;27753;55.724;37.612;2022-11-20T07:15:23;-1.10;99.30
42095;DHT22;27753;55.724;37.612;2022-11-20T07:17:50;-1.10;99.10
42095;DHT22;27753;55.724;37.612;2022-11-20T07:20:16;-1.10;99.10
42095;DHT22;27753;55.724;37.612;2022-11-20T07:22:42;-1.10;98.70
42095;DHT22;27753;55.724;37.612;2022-11-20T07:25:09;-1.10;98.50
42095;DHT22;27753;55.724;37.612;2022-11-20T07:27:40;-1.10;98.40
42095;DHT22;27753;55.724;37.612;2022-11-20T07:30:06;-1.10;98.50
42095;DHT22;27753;55.724;37.612;2022-11-20T07:32:32;-1.10;98.60
42095;DHT22;27753;55.724;37.612;2022-11-20T07:34:58;-1.10;98.60
42095;DHT22;27753;55.724;37.612;2022-11-20T07:37:24;-1.10;98.40
42095;DHT22;27753;55.724;37.612;2022-11-20T07:39:50;-1.10;98.30
42095;DHT22;27753;55.724;37.612;2022-11-20T07:42:16;-1.10;98.50
42095;DHT22;27753;55.724;37.612;2022-11-20T07:44:41;-1.10;98.70
42095;DHT22;27753;55.724;37.612;2022-11-20T07:47:07;-1.10;98.80
42095;DHT22;27753;55.724;37.612;2022-11-20T07:49:36;-1.10;98.80
42095;DHT22;27753;55.724;37.612;2022-11-20T07:52:02;-1.00;98.80
42095;DHT22;27753;55.724;37.612;2022-11-20T07:54:28;-1.00;98.80
42095;DHT22;27753;55.724;37.612;2022-11-20T07:56:56;-0.90;99.20
42095;DHT22;27753;55.724;37.612;2022-11-20T07:59:22;-0.90;99.40
42095;DHT22;27753;55.724;37.612;2022-11-20T08:01:48;-0.80;99.40
42095;DHT22;27753;55.724;37.612;2022-11-20T08:04:17;-0.80;99.30
42095;DHT22;27753;55.724;37.612;2022-11-20T08:06:43;-0.80;99.20
42095;DHT22;27753;55.724;37.612;2022-11-20T08:09:09;-0.70;99.20
42095;DHT22;27753;55.724;37.612;2022-11-20T08:11:35;-0.70;99.20
42095;DHT22;27753;55.724;37.612;2022-11-20T08:14:19;-0.60;99.10
42095;DHT22;27753;55.724;37.612;2022-11-20T08:16:46;-0.50;99.10
42095;DHT22;27753;55.724;37.612;2022-11-20T08:19:13;-0.50;99.10
42095;DHT22;27753;55.724;37.612;2022-11-20T08:21:40;-0.50;99.10
42095;DHT22;27753;55.724;37.612;2022-11-20T08:24:06;-0.50;98.90
42095;DHT22;27753;55.724;37.612;2022-11-20T08:26:33;-0.40;98.60
42095;DHT22;27753;55.724;37.612;2022-11-20T08:28:59;-0.40;98.50
42095;DHT22;27753;55.724;37.612;2022-11-20T08:31:26;-0.40;98.40
42095;DHT22;27753;55.724;37.612;2022-11-20T08:33:53;-0.40;98.10
42095;DHT22;27753;55.724;37.612;2022-11-20T08:36:20;-0.40;98.00
42095;DHT22;27753;55.724;37.612;2022-11-20T08:38:53;-0.40;98.20
42095;DHT22;27753;55.724;37.612;2022-11-20T08:41:20;-0.40;98.20
42095;DHT22;27753;55.724;37.612;2022-11-20T08:44:04;-0.40;98.30
42095;DHT22;27753;55.724;37.612;2022-11-20T08:46:39;-0.30;98.50
42095;DHT22;27753;55.724;37.612;2022-11-20T08:49:15;-0.30;98.60
42095;DHT22;27753;55.724;37.612;2022-11-20T08:51:41;-0.30;98.70
42095;DHT22;27753;55.724;37.612;2022-11-20T08:54:08;-0.30;98.60
42095;DHT22;27753;55.724;37.612;2022-11-20T08:56:34;-0.30;98.50
42095;DHT22;27753;55.724;37.612;2022-11-20T08:59:00;-0.20;98.60
42095;DHT22;27753;55.724;37.612;2022-11-20T09:01:27;-0.20;98.50
42095;DHT22;27753;55.724;37.612;2022-11-20T09:03:55;-0.20;98.30
42095;DHT22;27753;55.724;37.612;2022-11-20T09:06:28;-0.20;98.30
42095;DHT22;27753;55.724;37.612;2022-11-20T09:09:03;-0.20;98.30
42095;DHT22;27753;55.724;37.612;2022-11-20T09:11:49;-0.10;98.10
42095;DHT22;27753;55.724;37.612;2022-11-20T09:14:15;-0.10;98.20
42095;DHT22;27753;55.724;37.612;2022-11-20T09:16:41;-0.10;98.40
42095;DHT22;27753;55.724;37.612;2022-11-20T09:19:07;-0.10;98.90
42095;DHT22;27753;55.724;37.612;2022-11-20T09:24:31;-0.20;99.40
42095;DHT22;27753;55.724;37.612;2022-11-20T09:26:57;-0.20;99.90
42095;DHT22;27753;55.724;37.612;2022-11-20T09:29:22;-0.20;99.60
42095;DHT22;27753;55.724;37.612;2022-11-20T09:31:48;-0.20;99.20
42095;DHT22;27753;55.724;37.612;2022-11-20T09:34:14;-0.20;99.40
42095;DHT22;27753;55.724;37.612;2022-11-20T09:36:40;-0.30;99.40
42095;DHT22;27753;55.724;37.612;2022-11-20T09:39:06;-0.20;99.50
42095;DHT22;27753;55.724;37.612;2022-11-20T09:44:25;-0.20;99.90
42095;DHT22;27753;55.724;37.612;2022-11-20T09:47:16;-0.20;99.90
42095;DHT22;27753;55.724;37.612;2022-11-20T09:55:24;-0.20;99.90
42095;DHT22;27753;55.724;37.612;2022-11-20T09:57:51;-0.20;99.90
42095;DHT22;27753;55.724;37.612;2022-11-20T10:00:18;-0.20;99.90
42095;DHT22;27753;55.724;37.612;2022-11-20T10:03:26;-0.20;99.90
42095;DHT22;27753;55.724;37.612;2022-11-20T10:05:55;-0.20;99.90
42095;DHT22;27753;55.724;37.612;2022-11-20T10:08:44;-0.20;99.90
42095;DHT22;27753;55.724;37.612;2022-11-20T10:12:11;-0.20;99.90
42095;DHT22;27753;55.724;37.612;2022-11-20T10:25:43;0.00;99.90
42095;DHT22;27753;55.724;37.612;2022-11-20T10:31:17;-0.10;99.90
42095;DHT22;27753;55.724;37.612;2022-11-20T10:33:47;0.00;99.90
42095;DHT22;27753;55.724;37.612;2022-11-20T10:36:21;0.00;99.90
42095;DHT22;27753;55.724;37.612;2022-11-20T10:39:01;0.00;99.90
42095;DHT22;27753;55.724;37.612;2022-11-20T10:41:38;0.00;99.90
42095;DHT22;27753;55.724;37.612;2022-11-20T10:44:12;0.10;99.90
42095;DHT22;27753;55.724;37.612;2022-11-20T10:46:45;0.10;99.90
42095;DHT22;27753;55.724;37.612;2022-11-20T10:49:16;0.10;99.90
42095;DHT22;27753;55.724;37.612;2022-11-20T10:52:01;0.10;99.90
42095;DHT22;27753;55.724;37.612;2022-11-20T10:54:47;0.10;99.90
42095;DHT22;27753;55.724;37.612;2022-11-20T11:00:22;0.10;99.90
42095;DHT22;27753;55.724;37.612;2022-11-20T11:02:49;0.10;99.90
42095;DHT22;27753;55.724;37.612;2022-11-20T11:08:00;0.10;99.90
42095;DHT22;27753;55.724;37.612;2022-11-20T11:10:46;0.10;99.90
42095;DHT22;27753;55.724;37.612;2022-11-20T11:13:46;0.10;99.90
42095;DHT22;27753;55.724;37.612;2022-11-20T11:16:05;0.10;99.90
42095;DHT22;27753;55.724;37.612;2022-11-20T11:18:33;0.00;99.90
42095;DHT22;27753;55.724;37.612;2022-11-20T11:21:04;0.00;99.90
42095;DHT22;27753;55.724;37.612;2022-11-20T11:23:37;0.00;99.90
42095;DHT22;27753;55.724;37.612;2022-11-20T11:26:19;0.00;99.90
42095;DHT22;27753;55.724;37.612;2022-11-20T11:29:03;0.00;99.90
42095;DHT22;27753;55.724;37.612;2022-11-20T11:31:31;0.00;99.90
42095;DHT22;27753;55.724;37.612;2022-11-20T11:34:11;0.00;99.90
42095;DHT22;27753;55.724;37.612;2022-11-20T11:36:41;0.00;99.90
42095;DHT22;27753;55.724;37.612;2022-11-20T11:39:13;0.00;99.90
42095;DHT22;27753;55.724;37.612;2022-11-20T11:41:40;0.00;99.80
42095;DHT22;27753;55.724;37.612;2022-11-20T11:44:18;0.00;99.60
42095;DHT22;27753;55.724;37.612;2022-11-20T11:47:05;0.00;99.50
42095;DHT22;27753;55.724;37.612;2022-11-20T11:49:34;0.00;99.50
42095;DHT22;27753;55.724;37.612;2022-11-20T11:52:13;0.00;99.40
42095;DHT22;27753;55.724;37.612;2022-11-20T11:54:59;0.00;99.30
42095;DHT22;27753;55.724;37.612;2022-11-20T12:00:19;-0.10;99.10
42095;DHT22;27753;55.724;37.612;2022-11-20T12:16:03;-0.10;98.00
42095;DHT22;27753;55.724;37.612;2022-11-20T12:18:30;-0.20;97.80
42095;DHT22;27753;55.724;37.612;2022-11-20T12:21:09;-0.20;97.90
42095;DHT22;27753;55.724;37.612;2022-11-20T12:23:59;-0.20;97.80
42095;DHT22;27753;55.724;37.612;2022-11-20T12:29:50;-0.30;97.40
42095;DHT22;27753;55.724;37.612;2022-11-20T12:38:13;-0.30;97.60
42095;DHT22;27753;55.724;37.612;2022-11-20T12:44:02;-0.30;97.60
42095;DHT22;27753;55.724;37.612;2022-11-20T12:49:53;-0.30;97.20
42095;DHT22;27753;55.724;37.612;2022-11-20T12:57:57;-0.30;96.80
42095;DHT22;27753;55.724;37.612;2022-11-20T13:00:24;-0.40;96.70
42095;DHT22;27753;55.724;37.612;2022-11-20T13:08:04;-0.40;96.60
42095;DHT22;27753;55.724;37.612;2022-11-20T13:10:43;-0.30;96.90
42095;DHT22;27753;55.724;37.612;2022-11-20T13:14:07;-0.40;97.00
42095;DHT22;27753;55.724;37.612;2022-11-20T13:18:41;-0.40;97.00
42095;DHT22;27753;55.724;37.612;2022-11-20T13:21:17;-0.40;97.10
42095;DHT22;27753;55.724;37.612;2022-11-20T13:23:43;-0.40;97.10
42095;DHT22;27753;55.724;37.612;2022-11-20T13:26:23;-0.40;97.00
42095;DHT22;27753;55.724;37.612;2022-11-20T13:29:12;-0.40;97.00
42095;DHT22;27753;55.724;37.612;2022-11-20T13:31:44;-0.30;97.20
42095;DHT22;27753;55.724;37.612;2022-11-20T13:34:34;-0.40;96.90
42095;DHT22;27753;55.724;37.612;2022-11-20T13:36:59;-0.40;96.70
42095;DHT22;27753;55.724;37.612;2022-11-20T13:39:36;-0.40;96.70
42095;DHT22;27753;55.724;37.612;2022-11-20T13:42:27;-0.30;96.40
42095;DHT22;27753;55.724;37.612;2022-11-20T13:44:55;-0.40;96.10
42095;DHT22;27753;55.724;37.612;2022-11-20T13:47:23;-0.40;96.40
42095;DHT22;27753;55.724;37.612;2022-11-20T13:49:51;-0.40;96.30
42095;DHT22;27753;55.724;37.612;2022-11-20T13:55:53;-0.40;96.30
42095;DHT22;27753;55.724;37.612;2022-11-20T14:00:31;-0.40;96.40
42095;DHT22;27753;55.724;37.612;2022-11-20T14:05:38;-0.40;96.10
42095;DHT22;27753;55.724;37.612;2022-11-20T14:08:10;-0.40;96.10
42095;DHT22;27753;55.724;37.612;2022-11-20T14:10:38;-0.40;96.10
42095;DHT22;27753;55.724;37.612;2022-11-20T14:13:19;-0.40;96.20
42095;DHT22;27753;55.724;37.612;2022-11-20T14:15:46;-0.40;96.40
42095;DHT22;27753;55.724;37.612;2022-11-20T14:18:19;-0.40;96.20
42095;DHT22;27753;55.724;37.612;2022-11-20T14:20:47;-0.40;96.00
42095;DHT22;27753;55.724;37.612;2022-11-20T14:23:24;-0.40;96.10
42095;DHT22;27753;55.724;37.612;2022-11-20T14:25:51;-0.40;96.30
42095;DHT22;27753;55.724;37.612;2022-11-20T14:28:30;-0.40;96.50
42095;DHT22;27753;55.724;37.612;2022-11-20T14:30:57;-0.40;96.50
42095;DHT22;27753;55.724;37.612;2022-11-20T14:33:25;-0.40;96.50
42095;DHT22;27753;55.724;37.612;2022-11-20T14:35:56;-0.40;96.40
42095;DHT22;27753;55.724;37.612;2022-11-20T14:38:27;-0.40;96.50
42095;DHT22;27753;55.724;37.612;2022-11-20T14:40:53;-0.40;96.40
42095;DHT22;27753;55.724;37.612;2022-11-20T14:43:27;-0.40;96.30
42095;DHT22;27753;55.724;37.612;2022-11-20T14:46:07;-0.40;96.30
42095;DHT22;27753;55.724;37.612;2022-11-20T14:48:49;-0.50;96.20
42095;DHT22;27753;55.724;37.612;2022-11-20T14:51:38;-0.50;96.10
42095;DHT22;27753;55.724;37.612;2022-11-20T14:54:11;-0.50;96.30
42095;DHT22;27753;55.724;37.612;2022-11-20T14:56:37;-0.50;96.40
42095;DHT22;27753;55.724;37.612;2022-11-20T14:59:03;-0.50;96.60
42095;DHT22;27753;55.724;37.612;2022-11-20T15:01:30;-0.50;96.70
42095;DHT22;27753;55.724;37.612;2022-11-20T15:06:26;-0.40;96.70
42095;DHT22;27753;55.724;37.612;2022-11-20T15:08:53;-0.40;96.70
42095;DHT22;27753;55.724;37.612;2022-11-20T15:11:23;-0.40;96.40
42095;DHT22;27753;55.724;37.612;2022-11-20T15:13:50;-0.40;96.30
42095;DHT22;27753;55.724;37.612;2022-11-20T15:16:19;-0.40;96.30
42095;DHT22;27753;55.724;37.612;2022-11-20T15:18:45;-0.40;96.30
42095;DHT22;27753;55.724;37.612;2022-11-20T15:21:16;-0.40;96.20
42095;DHT22;27753;55.724;37.612;2022-11-20T15:23:43;-0.40;96.00
42095;DHT22;27753;55.724;37.612;2022-11-20T15:26:10;-0.40;96.00
42095;DHT22;27753;55.724;37.612;2022-11-20T15:28:38;-0.40;96.10
42095;DHT22;27753;55.724;37.612;2022-11-20T15:31:05;-0.40;96.00
42095;DHT22;27753;55.724;37.612;2022-11-20T15:33:32;-0.50;95.90
42095;DHT22;27753;55.724;37.612;2022-11-20T15:35:58;-0.50;95.90
42095;DHT22;27753;55.724;37.612;2022-11-20T15:38:24;-0.60;95.80
42095;DHT22;27753;55.724;37.612;2022-11-20T15:40:50;-0.60;95.70
42095;DHT22;27753;55.724;37.612;2022-11-20T15:43:16;-0.60;95.70
42095;DHT22;27753;55.724;37.612;2022-11-20T15:45:43;-0.60;95.90
42095;DHT22;27753;55.724;37.612;2022-11-20T15:48:24;-0.60;96.10
42095;DHT22;27753;55.724;37.612;2022-11-20T15:53:26;-0.50;96.30
42095;DHT22;27753;55.724;37.612;2022-11-20T15:55:51;-0.50;96.30
42095;DHT22;27753;55.724;37.612;2022-11-20T15:58:17;-0.50;96.20
42095;DHT22;27753;55.724;37.612;2022-11-20T16:00:43;-0.50;96.20
42095;DHT22;27753;55.724;37.612;2022-11-20T16:03:14;-0.50;96.40
42095;DHT22;27753;55.724;37.612;2022-11-20T16:05:40;-0.50;96.50
42095;DHT22;27753;55.724;37.612;2022-11-20T16:08:06;-0.50;96.50
42095;DHT22;27753;55.724;37.612;2022-11-20T16:10:32;-0.50;96.60
42095;DHT22;27753;55.724;37.612;2022-11-20T16:12:58;-0.50;96.60
42095;DHT22;27753;55.724;37.612;2022-11-20T16:15:49;-0.50;96.70
42095;DHT22;27753;55.724;37.612;2022-11-20T16:18:18;-0.50;96.70
42095;DHT22;27753;55.724;37.612;2022-11-20T16:20:46;-0.40;97.00
42095;DHT22;27753;55.724;37.612;2022-11-20T16:23:12;-0.40;97.00
42095;DHT22;27753;55.724;37.612;2022-11-20T16:25:38;-0.40;96.90
42095;DHT22;27753;55.724;37.612;2022-11-20T16:28:04;-0.50;96.80
42095;DHT22;27753;55.724;37.612;2022-11-20T16:30:31;-0.50;96.90
42095;DHT22;27753;55.724;37.612;2022-11-20T16:32:58;-0.50;96.80
42095;DHT22;27753;55.724;37.612;2022-11-20T16:35:28;-0.50;96.80
42095;DHT22;27753;55.724;37.612;2022-11-20T16:37:55;-0.50;96.80
42095;DHT22;27753;55.724;37.612;2022-11-20T16:40:22;-0.40;96.60
42095;DHT22;27753;55.724;37.612;2022-11-20T16:42:48;-0.50;96.60
42095;DHT22;27753;55.724;37.612;2022-11-20T16:45:14;-0.40;96.60
42095;DHT22;27753;55.724;37.612;2022-11-20T16:47:40;-0.50;96.60
42095;DHT22;27753;55.724;37.612;2022-11-20T16:50:06;-0.50;96.60
42095;DHT22;27753;55.724;37.612;2022-11-20T16:52:32;-0.50;96.80
42095;DHT22;27753;55.724;37.612;2022-11-20T16:54:59;-0.50;96.70
42095;DHT22;27753;55.724;37.612;2022-11-20T16:57:27;-0.50;96.60
42095;DHT22;27753;55.724;37.612;2022-11-20T16:59:54;-0.50;96.60
42095;DHT22;27753;55.724;37.612;2022-11-20T17:02:20;-0.50;96.60
42095;DHT22;27753;55.724;37.612;2022-11-20T17:04:46;-0.40;96.50